MZBZ Airport Information

Runway Information
Runway 07 Length 7100 ft width 150 ft
Elevation 14 ft Threshold 0 ft Heading 77
Runway 25 Length 7100 ft Width 150 ft
Elevation 15 ft Threshold 0 ft Heading 257
Airport Frequencies
Type APP Name BELIZE APP Frequency 121 MHZ
Type GND Name GND Frequency 121.9 MHZ
Type RDO Name BELIZE RDO Frequency 126.9 MHZ
Type TWR Name BELIZE TWR Frequency 118 MHZ
Airport Navaids
Type VOR-DME Name Belize Frequency 114300 KHZ
Type NDB Name Belize Frequency 392 KHZ
Airport Weather Information & NOTAM
ADDS - METARS form results

(1356 UTC 17 September 2021)
Data provider http://aviationweather.gov/metar/data/
 
Forecast for: MZBZ (BELIZE INTL , BZ)
Text: TAF MZBZ 171100Z 1712/1812 10010KT 9999 SCT024
Forecast period: 1200 UTC 17 September 2021 to 1200 UTC 18 September 2021
Forecast type: FROM: standard forecast or significant change
Winds: from the E (100 degrees) at 12 MPH (10 knots; 5.1 m/s)
Visibility: 6 or more miles (10+ km)
Ceiling: at least 12,000 feet AGL
Clouds: scattered clouds at 2400 feet AGL
Weather: no significant weather forecast for this period